createdAt,value
2022-07-29T00:00:33.291Z,92.30
2022-07-29T00:03:04.181Z,92.50
2022-07-29T00:05:34.952Z,91.30
2022-07-29T00:08:12.670Z,91.10
2022-07-29T00:10:43.501Z,91.30
2022-07-29T00:13:15.339Z,91.30
2022-07-29T00:15:54.929Z,91.20
2022-07-29T00:18:25.200Z,90.90
2022-07-29T00:20:55.829Z,90.40
2022-07-29T00:23:26.789Z,90.10
2022-07-29T00:25:57.913Z,89.80
2022-07-29T00:28:28.573Z,88.80
2022-07-29T00:30:59.237Z,88.50
2022-07-29T00:33:29.593Z,88.60
2022-07-29T00:36:00.333Z,88.90
2022-07-29T00:38:30.950Z,86.70
2022-07-29T00:41:02.143Z,87.10
2022-07-29T00:43:32.512Z,86.60
2022-07-29T00:46:05.860Z,86.90
2022-07-29T00:48:36.406Z,86.90
2022-07-29T00:51:08.938Z,86.80
2022-07-29T00:53:41.531Z,86.00
2022-07-29T00:56:12.910Z,85.50
2022-07-29T00:58:49.545Z,83.90
2022-07-29T01:01:24.913Z,83.40
2022-07-29T01:03:55.560Z,80.00
2022-07-29T01:06:28.409Z,79.60
2022-07-29T01:09:02.850Z,80.50
2022-07-29T01:11:34.113Z,79.30
2022-07-29T01:14:09.047Z,78.80
2022-07-29T01:16:56.626Z,77.60
2022-07-29T01:20:10.978Z,79.50
2022-07-29T01:23:11.356Z,79.90
2022-07-29T01:26:20.733Z,79.30
2022-07-29T01:29:11.046Z,79.40
2022-07-29T01:32:27.973Z,79.20
2022-07-29T01:35:22.445Z,79.10
2022-07-29T01:38:29.200Z,79.70
2022-07-29T01:41:08.550Z,78.40
2022-07-29T01:43:52.093Z,78.50
2022-07-29T01:46:47.842Z,77.30
2022-07-29T01:49:38.887Z,77.50
2022-07-29T01:52:26.503Z,76.90
2022-07-29T01:55:06.798Z,74.90
2022-07-29T01:57:42.791Z,74.10
2022-07-29T02:00:16.821Z,76.50
2022-07-29T02:02:50.537Z,76.90
2022-07-29T02:05:27.578Z,75.80
2022-07-29T02:08:06.919Z,74.10
2022-07-29T02:10:43.377Z,76.50
2022-07-29T02:13:21.237Z,76.00
2022-07-29T02:15:55.588Z,74.70
2022-07-29T02:18:37.617Z,74.10
2022-07-29T02:21:17.585Z,74.40
2022-07-29T02:23:53.747Z,74.60
2022-07-29T02:26:27.854Z,75.30
2022-07-29T02:29:01.991Z,73.40
2022-07-29T02:31:39.558Z,73.70
2022-07-29T02:34:15.553Z,73.40
2022-07-29T02:36:53.198Z,73.00
2022-07-29T02:39:25.584Z,73.30
2022-07-29T02:42:04.348Z,73.70
2022-07-29T02:44:43.228Z,73.40
2022-07-29T02:47:44.677Z,74.50
2022-07-29T02:50:28.970Z,74.20
2022-07-29T02:53:19.497Z,74.50
2022-07-29T02:55:59.065Z,74.30
2022-07-29T02:58:39.943Z,74.90
2022-07-29T03:01:28.782Z,75.90
2022-07-29T03:04:00.266Z,76.50
2022-07-29T03:06:38.282Z,75.50
2022-07-29T03:09:13.717Z,75.10
2022-07-29T03:11:50.663Z,73.10
2022-07-29T03:14:25.158Z,73.20
2022-07-29T03:16:58.867Z,72.60
2022-07-29T03:19:31.874Z,70.10
2022-07-29T03:22:04.559Z,68.90
2022-07-29T03:24:42.051Z,69.60
2022-07-29T03:27:12.900Z,72.70
2022-07-29T03:29:50.026Z,73.50
2022-07-29T03:32:25.743Z,73.30
2022-07-29T03:34:58.457Z,72.40
2022-07-29T03:37:29.291Z,72.00
2022-07-29T03:40:01.492Z,69.60
2022-07-29T03:42:38.745Z,70.40
2022-07-29T03:45:18.780Z,67.10
2022-07-29T03:48:00.929Z,68.00
2022-07-29T03:50:35.207Z,67.90
2022-07-29T03:53:07.806Z,67.50
2022-07-29T03:55:57.670Z,68.40
2022-07-29T03:58:32.185Z,69.90
2022-07-29T04:01:03.167Z,69.00
2022-07-29T04:03:35.031Z,68.20
2022-07-29T04:06:11.893Z,70.20
2022-07-29T04:08:43.870Z,68.50
2022-07-29T04:11:15.882Z,68.70
2022-07-29T04:13:47.797Z,67.10
2022-07-29T04:16:18.833Z,67.00
2022-07-29T04:18:49.498Z,66.70
2022-07-29T04:21:23.925Z,66.20
2022-07-29T04:23:56.838Z,66.10
2022-07-29T04:26:27.471Z,66.50
2022-07-29T04:28:59.158Z,67.10
2022-07-29T04:31:31.616Z,68.50
2022-07-29T04:34:03.241Z,70.20
2022-07-29T04:36:37.144Z,70.60
2022-07-29T04:39:09.297Z,69.20
2022-07-29T04:41:41.174Z,70.50
2022-07-29T04:44:14.953Z,70.50
2022-07-29T04:46:48.207Z,70.50
2022-07-29T04:49:20.663Z,70.10
2022-07-29T04:52:00.725Z,69.10
2022-07-29T04:54:31.786Z,68.10
2022-07-29T04:57:02.455Z,69.10
2022-07-29T04:59:34.017Z,70.40
2022-07-29T05:02:06.608Z,70.40
2022-07-29T05:04:38.610Z,68.70
2022-07-29T05:07:15.279Z,69.40
2022-07-29T05:09:46.147Z,70.10
2022-07-29T05:12:17.956Z,71.70
2022-07-29T05:14:48.647Z,73.20
2022-07-29T05:17:19.720Z,73.70
2022-07-29T05:19:50.494Z,74.00
2022-07-29T05:22:24.086Z,72.90
2022-07-29T05:24:55.688Z,73.20
2022-07-29T05:27:27.850Z,74.20
2022-07-29T05:29:58.580Z,74.10
2022-07-29T05:32:29.172Z,73.70
2022-07-29T05:34:59.886Z,73.90
2022-07-29T05:37:31.422Z,74.50
2022-07-29T05:40:02.995Z,74.80
2022-07-29T05:42:33.823Z,74.30
2022-07-29T05:45:07.107Z,72.60
2022-07-29T05:47:40.022Z,71.30
2022-07-29T05:50:11.588Z,67.70
2022-07-29T05:52:42.297Z,68.60
2022-07-29T05:55:12.959Z,71.00
2022-07-29T05:57:46.558Z,69.90
2022-07-29T06:00:17.532Z,67.40
2022-07-29T06:02:48.085Z,69.10
2022-07-29T06:05:19.233Z,69.40
2022-07-29T06:07:51.572Z,69.10
2022-07-29T06:10:23.931Z,69.80
2022-07-29T06:13:00.016Z,69.90
2022-07-29T06:15:37.061Z,69.80
2022-07-29T06:18:06.760Z,68.70
2022-07-29T06:20:37.439Z,67.40
2022-07-29T06:23:08.416Z,65.80
2022-07-29T06:25:39.724Z,66.70
2022-07-29T06:28:12.364Z,65.70
2022-07-29T06:30:45.217Z,67.10
2022-07-29T06:33:21.932Z,67.90
2022-07-29T06:35:55.185Z,67.50
2022-07-29T06:38:31.095Z,68.20
2022-07-29T06:41:07.650Z,68.90
2022-07-29T06:43:50.570Z,68.00
2022-07-29T06:46:24.558Z,67.30
2022-07-29T06:48:56.354Z,65.70
2022-07-29T06:51:27.863Z,66.70
2022-07-29T06:54:02.651Z,68.70
2022-07-29T06:56:38.849Z,66.90
2022-07-29T06:59:12.110Z,66.50
2022-07-29T07:01:47.070Z,66.40
2022-07-29T07:04:18.015Z,68.40
2022-07-29T07:06:49.754Z,68.80
2022-07-29T07:09:21.387Z,70.20
2022-07-29T07:11:52.064Z,70.80
2022-07-29T07:14:22.680Z,68.80
2022-07-29T07:16:53.312Z,69.70
2022-07-29T07:19:25.774Z,71.70
2022-07-29T07:21:58.920Z,70.80
2022-07-29T07:24:33.082Z,72.10
2022-07-29T07:27:08.236Z,70.80
2022-07-29T07:29:39.351Z,69.70
2022-07-29T07:32:11.348Z,69.00
2022-07-29T07:34:42.949Z,72.20
2022-07-29T07:37:14.829Z,71.70
2022-07-29T07:39:46.429Z,71.60
2022-07-29T07:42:17.124Z,71.60
2022-07-29T07:45:12.175Z,71.60
2022-07-29T07:47:42.704Z,71.60
2022-07-29T07:50:19.090Z,69.60
2022-07-29T07:53:00.715Z,71.60
2022-07-29T07:55:47.547Z,71.80
2022-07-29T07:58:23.277Z,73.80
2022-07-29T08:00:55.237Z,74.10
2022-07-29T08:03:25.911Z,74.00
2022-07-29T08:05:58.227Z,72.40
2022-07-29T08:08:31.956Z,73.90
2022-07-29T08:11:09.105Z,75.00
2022-07-29T08:13:41.563Z,74.90
2022-07-29T08:16:16.934Z,75.10
2022-07-29T08:18:49.724Z,75.10
2022-07-29T08:21:22.045Z,74.10
2022-07-29T08:23:59.908Z,76.10
2022-07-29T08:26:34.119Z,75.20
2022-07-29T08:29:04.770Z,75.30
2022-07-29T08:31:36.419Z,76.30
2022-07-29T08:34:09.170Z,76.40
2022-07-29T08:36:41.380Z,77.20
2022-07-29T08:39:14.355Z,77.30
2022-07-29T08:41:56.635Z,77.70
2022-07-29T08:44:31.087Z,75.10
2022-07-29T08:47:02.021Z,74.70
2022-07-29T08:49:34.014Z,74.80
2022-07-29T08:52:05.099Z,75.20
2022-07-29T08:54:38.576Z,74.60
2022-07-29T08:57:10.775Z,75.50
2022-07-29T08:59:47.142Z,75.90
2022-07-29T09:02:26.689Z,76.30
2022-07-29T09:04:58.737Z,76.30
2022-07-29T09:07:34.620Z,74.70
2022-07-29T09:10:09.499Z,75.50
2022-07-29T09:12:40.997Z,75.70
2022-07-29T09:15:12.818Z,76.30
2022-07-29T09:17:51.623Z,77.00
2022-07-29T09:20:28.636Z,78.30
2022-07-29T09:22:58.993Z,78.90
2022-07-29T09:25:42.397Z,79.60
2022-07-29T09:28:16.078Z,79.90
2022-07-29T09:30:58.937Z,79.50
2022-07-29T09:33:47.831Z,79.80
2022-07-29T09:36:20.782Z,79.50
2022-07-29T09:39:05.888Z,79.40
2022-07-29T09:41:59.513Z,80.50
2022-07-29T09:44:48.751Z,82.40
2022-07-29T09:47:23.389Z,81.40
2022-07-29T09:50:04.145Z,81.50
2022-07-29T09:52:36.088Z,81.80
2022-07-29T09:55:31.056Z,81.40
2022-07-29T10:01:41.985Z,83.20
2022-07-29T10:04:15.203Z,83.60
2022-07-29T10:11:21.790Z,84.40
2022-07-29T10:13:58.283Z,84.80
2022-07-29T10:16:37.511Z,84.40
2022-07-29T20:58:25.362Z,91.20
2022-07-29T21:01:00.692Z,91.00
2022-07-29T21:03:36.774Z,91.10
2022-07-29T21:06:26.005Z,91.30
2022-07-29T21:09:03.624Z,91.40
2022-07-29T21:11:44.100Z,91.50
2022-07-29T21:14:39.600Z,92.10
2022-07-29T21:17:24.739Z,91.40
2022-07-29T21:20:24.735Z,91.40
2022-07-29T21:23:01.057Z,91.30
2022-07-29T21:25:45.169Z,91.30
2022-07-29T21:28:37.299Z,91.50
2022-07-29T21:31:26.689Z,91.60
2022-07-29T21:34:00.341Z,91.40
2022-07-29T21:36:49.113Z,91.60
2022-07-29T21:39:23.338Z,91.60
2022-07-29T21:42:01.146Z,91.30
2022-07-29T21:44:45.646Z,91.40
2022-07-29T21:47:23.970Z,91.70
2022-07-29T21:49:57.015Z,91.50
2022-07-29T21:52:34.659Z,91.70
2022-07-29T21:55:19.271Z,92.00
2022-07-29T21:57:58.210Z,92.00
2022-07-29T22:00:32.046Z,91.90
2022-07-29T22:03:09.105Z,92.10
2022-07-29T22:05:39.965Z,92.30
2022-07-29T22:08:13.498Z,92.30
2022-07-29T22:10:49.020Z,92.50
2022-07-29T22:13:21.279Z,92.90
2022-07-29T22:15:52.479Z,92.60
2022-07-29T22:21:09.814Z,92.30
2022-07-29T22:23:45.518Z,92.20
2022-07-29T22:26:17.527Z,91.80
2022-07-29T22:28:49.752Z,91.90
2022-07-29T22:31:21.769Z,91.80
2022-07-29T22:33:57.897Z,91.70
2022-07-29T22:36:32.147Z,91.80
2022-07-29T22:39:15.536Z,91.90
2022-07-29T22:41:58.674Z,91.70
2022-07-29T22:44:30.699Z,91.60
2022-07-29T22:47:04.782Z,91.60
2022-07-29T22:49:38.144Z,91.60
2022-07-29T22:52:19.768Z,91.30
2022-07-29T22:54:53.770Z,91.20
2022-07-29T22:57:33.581Z,90.80
2022-07-29T23:00:12.148Z,90.60
2022-07-29T23:02:48.756Z,90.60
2022-07-29T23:05:20.307Z,90.50
2022-07-29T23:08:10.030Z,90.30
2022-07-29T23:22:54.785Z,88.90
